PWSweather.com
Personal Weather Stations
Station Observations
KMNGREYC2
Grey Cloud Island, Grey Cloud Island, MN 55071

Grey Cloud IslandGrey Cloud Island, MN 55071

Lat: 44.799333, Lon: -92.987851

Elevation: 700

Station Type: Davis VP2

www.jagielski.com/weather/conditions.htm

High Low Average
Temperature 78.7°F25.9°C 59.9°F15.5°C 66.0°F18.9°C
Dew Point 70.3°F21.3°C 54.2°F12.3°C 62.4°F16.9°C
Winds 6.0 mph 9.7 kmh Calm Calm 1.0 mph WSW1.6 kmh WSW
Wind Gusts 9.0 mph14.5 kmh -- 3.0 mph4.8 kmh
Humidity 97% 70% 88%
Pressure 29.92 in1013.2 mb 29.75 in1007.5 mb -
Precipitation 0.00 in0.0 mm - -
Hour Temp Dew Point Humidity Winds Wind Gusts Pressure Precip Precip Rate Daily Precip Total
12:00 AM 64.0°F17.8°C 60.1°F15.6°C 87% Calm Calm -- 29.83 in1010.2 mb 0.00 in0.0 mm 0.00 in0.0 mm 0.00 in0.0 mm
12:15 AM 63.7°F17.6°C 60.1°F15.6°C 88% Calm Calm -- 29.83 in1010.2 mb 0.00 in0.0 mm 0.00 in0.0 mm 0.00 in0.0 mm
12:30 AM 63.5°F17.5°C 60.2°F15.7°C 89% Calm Calm -- 29.83 in1010.2 mb 0.00 in0.0 mm 0.00 in0.0 mm 0.00 in0.0 mm
12:45 AM 63.4°F17.4°C 60.4°F15.8°C 90% Calm Calm -- 29.83 in1010.2 mb 0.00 in0.0 mm 0.00 in0.0 mm 0.00 in0.0 mm
01:00 AM 63.4°F17.4°C 60.7°F15.9°C 91% Calm Calm -- 29.83 in1010.2 mb 0.00 in0.0 mm 0.00 in0.0 mm 0.00 in0.0 mm
01:15 AM 63.4°F17.4°C 60.7°F15.9°C 91% Calm Calm -- 29.83 in1010.2 mb 0.00 in0.0 mm 0.00 in0.0 mm 0.00 in0.0 mm
01:30 AM 63.3°F17.4°C 60.6°F15.9°C 91% Calm Calm -- 29.83 in1010.2 mb 0.00 in0.0 mm 0.00 in0.0 mm 0.00 in0.0 mm
01:45 AM 63.3°F17.4°C 60.9°F16.1°C 92% Calm Calm -- 29.83 in1010.2 mb 0.00 in0.0 mm 0.00 in0.0 mm 0.00 in0.0 mm
02:00 AM 63.3°F17.4°C 60.9°F16.1°C 92% Calm Calm -- 29.82 in1009.8 mb 0.00 in0.0 mm 0.00 in0.0 mm 0.00 in0.0 mm
02:15 AM 63.2°F17.3°C 60.8°F16.0°C 92% Calm Calm 1.0 mph1.6 kmh 29.82 in1009.8 mb 0.00 in0.0 mm 0.00 in0.0 mm 0.00 in0.0 mm
02:30 AM 63.0°F17.2°C 60.6°F15.9°C 92% Calm Calm -- 29.81 in1009.5 mb 0.00 in0.0 mm 0.00 in0.0 mm 0.00 in0.0 mm
02:45 AM 62.8°F17.1°C 60.5°F15.8°C 92% Calm Calm -- 29.81 in1009.5 mb 0.00 in0.0 mm 0.00 in0.0 mm 0.00 in0.0 mm
03:00 AM 62.6°F17.0°C 60.3°F15.7°C 92% Calm Calm -- 29.81 in1009.5 mb 0.00 in0.0 mm 0.00 in0.0 mm 0.00 in0.0 mm
03:15 AM 62.4°F16.9°C 60.1°F15.6°C 92% Calm Calm -- 29.81 in1009.5 mb 0.00 in0.0 mm 0.00 in0.0 mm 0.00 in0.0 mm
03:30 AM 62.2°F16.8°C 59.9°F15.5°C 92% Calm Calm -- 29.81 in1009.5 mb 0.00 in0.0 mm 0.00 in0.0 mm 0.00 in0.0 mm
03:45 AM 62.1°F16.7°C 59.8°F15.4°C 92% Calm Calm -- 29.82 in1009.8 mb 0.00 in0.0 mm 0.00 in0.0 mm 0.00 in0.0 mm
04:00 AM 61.9°F16.6°C 59.9°F15.5°C 93% Calm Calm -- 29.82 in1009.8 mb 0.00 in0.0 mm 0.00 in0.0 mm 0.00 in0.0 mm
04:15 AM 61.8°F16.6°C 59.8°F15.4°C 93% Calm Calm -- 29.81 in1009.5 mb 0.00 in0.0 mm 0.00 in0.0 mm 0.00 in0.0 mm
04:30 AM 61.7°F16.5°C 59.7°F15.4°C 93% Calm Calm -- 29.81 in1009.5 mb 0.00 in0.0 mm 0.00 in0.0 mm 0.00 in0.0 mm
04:45 AM 61.7°F16.5°C 59.7°F15.4°C 93% Calm Calm -- 29.81 in1009.5 mb 0.00 in0.0 mm 0.00 in0.0 mm 0.00 in0.0 mm
05:00 AM 61.6°F16.4°C 59.6°F15.3°C 93% Calm Calm -- 29.80 in1009.1 mb 0.00 in0.0 mm 0.00 in0.0 mm 0.00 in0.0 mm
05:15 AM 61.5°F16.4°C 59.8°F15.4°C 94% Calm Calm -- 29.80 in1009.1 mb 0.00 in0.0 mm 0.00 in0.0 mm 0.00 in0.0 mm
05:30 AM 61.5°F16.4°C 59.8°F15.4°C 94% Calm Calm -- 29.80 in1009.1 mb 0.00 in0.0 mm 0.00 in0.0 mm 0.00 in0.0 mm
05:45 AM 61.6°F16.4°C 59.9°F15.5°C 94% Calm Calm -- 29.82 in1009.8 mb 0.00 in0.0 mm 0.00 in0.0 mm 0.00 in0.0 mm
06:00 AM 61.9°F16.6°C 60.2°F15.7°C 94% Calm Calm -- 29.82 in1009.8 mb 0.00 in0.0 mm 0.00 in0.0 mm 0.00 in0.0 mm
06:15 AM 62.4°F16.9°C 61.0°F16.1°C 95% Calm Calm 1.0 mph1.6 kmh 29.82 in1009.8 mb 0.00 in0.0 mm 0.00 in0.0 mm 0.00 in0.0 mm
06:30 AM 63.0°F17.2°C 61.6°F16.4°C 95% Calm Calm -- 29.82 in1009.8 mb 0.00 in0.0 mm 0.00 in0.0 mm 0.00 in0.0 mm
06:45 AM 63.2°F17.3°C 62.0°F16.7°C 96% Calm Calm -- 29.83 in1010.2 mb 0.00 in0.0 mm 0.00 in0.0 mm 0.00 in0.0 mm
07:00 AM 63.4°F17.4°C 62.2°F16.8°C 96% Calm Calm -- 29.82 in1009.8 mb 0.01 in0.3 mm 0.01 in0.3 mm 0.01 in0.3 mm
07:15 AM 63.8°F17.7°C 62.6°F17.0°C 96% Calm Calm 2.0 mph3.2 kmh 29.81 in1009.5 mb 0.02 in0.5 mm 0.04 in1.0 mm 0.02 in0.5 mm
07:30 AM 64.0°F17.8°C 62.8°F17.1°C 96% Calm Calm -- 29.81 in1009.5 mb 0.02 in0.5 mm 0.00 in0.0 mm 0.02 in0.5 mm
07:45 AM 64.3°F17.9°C 63.1°F17.3°C 96% Calm Calm -- 29.81 in1009.5 mb 0.02 in0.5 mm 0.00 in0.0 mm 0.02 in0.5 mm
08:00 AM 64.5°F18.1°C 63.3°F17.4°C 96% Calm Calm -- 29.83 in1010.2 mb 0.01 in0.3 mm 0.00 in0.0 mm 0.02 in0.5 mm
08:15 AM 64.6°F18.1°C 63.4°F17.4°C 96% Calm Calm -- 29.82 in1009.8 mb 0.03 in0.8 mm 0.08 in2.0 mm 0.04 in1.0 mm
08:30 AM 64.7°F18.2°C 63.5°F17.5°C 96% Calm Calm 2.0 mph3.2 kmh 29.80 in1009.1 mb 0.02 in0.5 mm 0.00 in0.0 mm 0.04 in1.0 mm
08:45 AM 64.8°F18.2°C 63.6°F17.6°C 96% Calm Calm 4.0 mph6.4 kmh 29.80 in1009.1 mb 0.02 in0.5 mm 0.00 in0.0 mm 0.04 in1.0 mm
09:00 AM 64.5°F18.1°C 63.3°F17.4°C 96% Calm Calm 3.0 mph4.8 kmh 29.79 in1008.8 mb 0.03 in0.8 mm 0.01 in0.3 mm 0.05 in1.3 mm
09:15 AM 64.5°F18.1°C 63.6°F17.6°C 97% Calm Calm 4.0 mph6.4 kmh 29.78 in1008.5 mb 0.03 in0.8 mm 0.00 in0.0 mm 0.05 in1.3 mm
09:30 AM 64.9°F18.3°C 64.0°F17.8°C 97% Calm Calm -- 29.78 in1008.5 mb 0.02 in0.5 mm 0.00 in0.0 mm 0.05 in1.3 mm
09:45 AM 65.5°F18.6°C 64.6°F18.1°C 97% Calm Calm 5.0 mph8.0 kmh 29.79 in1008.8 mb 0.02 in0.5 mm 0.00 in0.0 mm 0.05 in1.3 mm
10:00 AM 66.3°F19.1°C 65.4°F18.6°C 97% 1.0 mph SSW1.6 kmh SSW 6.0 mph9.7 kmh 29.78 in1008.5 mb 0.01 in0.3 mm 0.00 in0.0 mm 0.05 in1.3 mm
10:15 AM 66.9°F19.4°C 66.0°F18.9°C 97% Calm Calm 6.0 mph9.7 kmh 29.78 in1008.5 mb 0.01 in0.3 mm 0.00 in0.0 mm 0.05 in1.3 mm
10:30 AM 67.4°F19.7°C 66.5°F19.2°C 97% Calm Calm 3.0 mph4.8 kmh 29.78 in1008.5 mb 0.00 in0.0 mm 0.00 in0.0 mm 0.05 in1.3 mm
10:45 AM 67.4°F19.7°C 66.5°F19.2°C 97% 1.0 mph SSW1.6 kmh SSW 5.0 mph8.0 kmh 29.78 in1008.5 mb 0.00 in0.0 mm 0.00 in0.0 mm 0.05 in1.3 mm
11:00 AM 67.5°F19.7°C 66.6°F19.2°C 97% Calm Calm 1.0 mph1.6 kmh 29.78 in1008.5 mb 0.00 in0.0 mm 0.00 in0.0 mm 0.05 in1.3 mm
11:15 AM 67.7°F19.8°C 66.8°F19.3°C 97% Calm Calm 7.0 mph11.3 kmh 29.78 in1008.5 mb 0.00 in0.0 mm 0.00 in0.0 mm 0.05 in1.3 mm
11:30 AM 68.0°F20.0°C 67.1°F19.5°C 97% 5.0 mph S8.0 kmh S 5.0 mph8.0 kmh 29.78 in1008.5 mb 0.00 in0.0 mm 0.00 in0.0 mm 0.05 in1.3 mm
11:45 AM 68.1°F20.1°C 66.9°F19.4°C 96% 2.0 mph SW3.2 kmh SW 5.0 mph8.0 kmh 29.78 in1008.5 mb 0.00 in0.0 mm 0.00 in0.0 mm 0.05 in1.3 mm
12:00 PM 68.5°F20.3°C 67.3°F19.6°C 96% Calm Calm 2.0 mph3.2 kmh 29.78 in1008.5 mb 0.00 in0.0 mm 0.00 in0.0 mm 0.05 in1.3 mm
12:15 PM 69.2°F20.7°C 67.7°F19.8°C 95% Calm Calm 4.0 mph6.4 kmh 29.78 in1008.5 mb 0.00 in0.0 mm 0.00 in0.0 mm 0.05 in1.3 mm
12:30 PM 70.3°F21.3°C 67.6°F19.8°C 91% Calm Calm 3.0 mph4.8 kmh 29.78 in1008.5 mb 0.00 in0.0 mm 0.00 in0.0 mm 0.05 in1.3 mm
12:45 PM 70.6°F21.4°C 67.9°F19.9°C 91% Calm Calm 5.0 mph8.0 kmh 29.78 in1008.5 mb 0.00 in0.0 mm 0.00 in0.0 mm 0.05 in1.3 mm
01:00 PM 71.3°F21.8°C 68.2°F20.1°C 90% 1.0 mph SW1.6 kmh SW 7.0 mph11.3 kmh 29.77 in1008.1 mb 0.00 in0.0 mm 0.00 in0.0 mm 0.05 in1.3 mm
01:15 PM 72.7°F22.6°C 68.3°F20.2°C 86% 2.0 mph NW3.2 kmh NW 7.0 mph11.3 kmh 29.77 in1008.1 mb 0.00 in0.0 mm 0.00 in0.0 mm 0.05 in1.3 mm
01:30 PM 73.7°F23.2°C 67.9°F19.9°C 82% 2.0 mph N3.2 kmh N 4.0 mph6.4 kmh 29.77 in1008.1 mb 0.00 in0.0 mm 0.00 in0.0 mm 0.05 in1.3 mm
01:45 PM 74.6°F23.7°C 67.7°F19.8°C 79% Calm Calm 8.0 mph12.9 kmh 29.77 in1008.1 mb 0.00 in0.0 mm 0.00 in0.0 mm 0.05 in1.3 mm
02:00 PM 74.8°F23.8°C 68.2°F20.1°C 80% Calm Calm 2.0 mph3.2 kmh 29.76 in1007.8 mb 0.00 in0.0 mm 0.00 in0.0 mm 0.05 in1.3 mm
02:15 PM 75.7°F24.3°C 68.7°F20.4°C 79% 1.0 mph WSW1.6 kmh WSW 4.0 mph6.4 kmh 29.76 in1007.8 mb 0.00 in0.0 mm 0.00 in0.0 mm 0.05 in1.3 mm
02:30 PM 76.9°F24.9°C 68.4°F20.2°C 75% 2.0 mph SW3.2 kmh SW 4.0 mph6.4 kmh 29.75 in1007.5 mb 0.00 in0.0 mm 0.00 in0.0 mm 0.05 in1.3 mm
02:45 PM 78.0°F25.6°C 68.3°F20.2°C 72% Calm Calm 6.0 mph9.7 kmh 29.75 in1007.5 mb 0.00 in0.0 mm 0.00 in0.0 mm 0.05 in1.3 mm
03:00 PM 78.7°F25.9°C 68.1°F20.1°C 70% 2.0 mph WNW3.2 kmh WNW 6.0 mph9.7 kmh 29.75 in1007.5 mb 0.00 in0.0 mm 0.00 in0.0 mm 0.05 in1.3 mm
03:15 PM 78.2°F25.7°C 68.8°F20.4°C 73% Calm Calm 8.0 mph12.9 kmh 29.75 in1007.5 mb 0.01 in0.3 mm 0.04 in1.0 mm 0.06 in1.5 mm
03:30 PM 76.5°F24.7°C 69.9°F21.1°C 80% Calm Calm -- 29.76 in1007.8 mb 0.05 in1.3 mm 0.16 in4.1 mm 0.10 in2.5 mm
03:45 PM 75.1°F23.9°C 70.3°F21.3°C 85% Calm Calm 4.0 mph6.4 kmh 29.76 in1007.8 mb 0.05 in1.3 mm 0.00 in0.0 mm 0.10 in2.5 mm
04:00 PM 73.9°F23.3°C 69.8°F21.0°C 87% Calm Calm 2.0 mph3.2 kmh 29.76 in1007.8 mb 0.05 in1.3 mm 0.00 in0.0 mm 0.10 in2.5 mm
04:15 PM 72.7°F22.6°C 69.0°F20.6°C 88% Calm Calm 7.0 mph11.3 kmh 29.77 in1008.1 mb 0.05 in1.3 mm 0.00 in0.0 mm 0.10 in2.5 mm
04:30 PM 71.3°F21.8°C 67.2°F19.6°C 87% 1.0 mph N1.6 kmh N 5.0 mph8.0 kmh 29.78 in1008.5 mb 0.00 in0.0 mm 0.00 in0.0 mm 0.10 in2.5 mm
04:45 PM 70.4°F21.3°C 66.4°F19.1°C 87% 1.0 mph NNW1.6 kmh NNW 8.0 mph12.9 kmh 29.79 in1008.8 mb 0.00 in0.0 mm 0.00 in0.0 mm 0.10 in2.5 mm
05:00 PM 69.4°F20.8°C 65.0°F18.3°C 86% 3.0 mph N4.8 kmh N 6.0 mph9.7 kmh 29.80 in1009.1 mb 0.00 in0.0 mm 0.00 in0.0 mm 0.10 in2.5 mm
05:15 PM 68.9°F20.5°C 64.9°F18.3°C 87% 1.0 mph NW1.6 kmh NW 7.0 mph11.3 kmh 29.80 in1009.1 mb 0.00 in0.0 mm 0.00 in0.0 mm 0.10 in2.5 mm
05:30 PM 68.2°F20.1°C 63.5°F17.5°C 85% 6.0 mph WNW9.7 kmh WNW 8.0 mph12.9 kmh 29.81 in1009.5 mb 0.00 in0.0 mm 0.00 in0.0 mm 0.10 in2.5 mm
05:45 PM 67.8°F19.9°C 63.1°F17.3°C 85% 4.0 mph N6.4 kmh N 8.0 mph12.9 kmh 29.82 in1009.8 mb 0.00 in0.0 mm 0.00 in0.0 mm 0.10 in2.5 mm
06:00 PM 67.4°F19.7°C 62.4°F16.9°C 84% 2.0 mph W3.2 kmh W 6.0 mph9.7 kmh 29.82 in1009.8 mb 0.00 in0.0 mm 0.00 in0.0 mm 0.10 in2.5 mm
06:15 PM 67.0°F19.4°C 62.0°F16.7°C 84% Calm Calm 6.0 mph9.7 kmh 29.82 in1009.8 mb 0.00 in0.0 mm 0.00 in0.0 mm 0.10 in2.5 mm
06:30 PM 66.8°F19.3°C 61.8°F16.6°C 84% 1.0 mph W1.6 kmh W 4.0 mph6.4 kmh 29.82 in1009.8 mb 0.00 in0.0 mm 0.00 in0.0 mm 0.10 in2.5 mm
06:45 PM 66.6°F19.2°C 61.6°F16.4°C 84% 6.0 mph NE9.7 kmh NE 7.0 mph11.3 kmh 29.83 in1010.2 mb 0.00 in0.0 mm 0.00 in0.0 mm 0.10 in2.5 mm
07:00 PM 66.2°F19.0°C 60.6°F15.9°C 82% 5.0 mph NW8.0 kmh NW 7.0 mph11.3 kmh 29.83 in1010.2 mb 0.00 in0.0 mm 0.00 in0.0 mm 0.10 in2.5 mm
07:15 PM 66.0°F18.9°C 60.7°F15.9°C 83% 1.0 mph N1.6 kmh N 9.0 mph14.5 kmh 29.83 in1010.2 mb 0.00 in0.0 mm 0.00 in0.0 mm 0.10 in2.5 mm
07:30 PM 65.8°F18.8°C 60.2°F15.7°C 82% Calm Calm 2.0 mph3.2 kmh 29.83 in1010.2 mb 0.00 in0.0 mm 0.00 in0.0 mm 0.10 in2.5 mm
07:45 PM 65.5°F18.6°C 59.9°F15.5°C 82% Calm Calm 7.0 mph11.3 kmh 29.84 in1010.5 mb 0.00 in0.0 mm 0.00 in0.0 mm 0.10 in2.5 mm
08:00 PM 65.2°F18.4°C 59.6°F15.3°C 82% Calm Calm 4.0 mph6.4 kmh 29.85 in1010.8 mb 0.00 in0.0 mm 0.00 in0.0 mm 0.10 in2.5 mm
08:15 PM 64.8°F18.2°C 59.2°F15.1°C 82% 2.0 mph W3.2 kmh W 8.0 mph12.9 kmh 29.85 in1010.8 mb 0.00 in0.0 mm 0.00 in0.0 mm 0.10 in2.5 mm
08:30 PM 64.4°F18.0°C 59.1°F15.1°C 83% Calm Calm 6.0 mph9.7 kmh 29.85 in1010.8 mb 0.00 in0.0 mm 0.00 in0.0 mm 0.10 in2.5 mm
08:45 PM 64.1°F17.8°C 58.5°F14.7°C 82% 2.0 mph WNW3.2 kmh WNW 6.0 mph9.7 kmh 29.85 in1010.8 mb 0.00 in0.0 mm 0.00 in0.0 mm 0.10 in2.5 mm
09:00 PM 63.9°F17.7°C 58.3°F14.6°C 82% Calm Calm 3.0 mph4.8 kmh 29.85 in1010.8 mb 0.00 in0.0 mm 0.00 in0.0 mm 0.10 in2.5 mm
09:15 PM 63.5°F17.5°C 57.9°F14.4°C 82% 1.0 mph NW1.6 kmh NW 7.0 mph11.3 kmh 29.87 in1011.5 mb 0.00 in0.0 mm 0.00 in0.0 mm 0.10 in2.5 mm
09:30 PM 63.1°F17.3°C 57.9°F14.4°C 83% 3.0 mph NW4.8 kmh NW 5.0 mph8.0 kmh 29.88 in1011.9 mb 0.00 in0.0 mm 0.00 in0.0 mm 0.10 in2.5 mm
09:45 PM 62.7°F17.1°C 57.5°F14.2°C 83% Calm Calm 7.0 mph11.3 kmh 29.89 in1012.2 mb 0.00 in0.0 mm 0.00 in0.0 mm 0.10 in2.5 mm
10:00 PM 62.3°F16.8°C 57.4°F14.1°C 84% 1.0 mph NW1.6 kmh NW 1.0 mph1.6 kmh 29.90 in1012.5 mb 0.00 in0.0 mm 0.00 in0.0 mm 0.10 in2.5 mm
10:15 PM 62.0°F16.7°C 57.1°F13.9°C 84% 2.0 mph NW3.2 kmh NW 5.0 mph8.0 kmh 29.90 in1012.5 mb 0.00 in0.0 mm 0.00 in0.0 mm 0.10 in2.5 mm
10:30 PM 61.6°F16.4°C 56.7°F13.7°C 84% 2.0 mph NW3.2 kmh NW 2.0 mph3.2 kmh 29.89 in1012.2 mb 0.00 in0.0 mm 0.00 in0.0 mm 0.10 in2.5 mm
10:45 PM 61.4°F16.3°C 56.5°F13.6°C 84% Calm Calm 5.0 mph8.0 kmh 29.90 in1012.5 mb 0.00 in0.0 mm 0.00 in0.0 mm 0.10 in2.5 mm
11:00 PM 61.2°F16.2°C 56.3°F13.5°C 84% 1.0 mph NNW1.6 kmh NNW 2.0 mph3.2 kmh 29.89 in1012.2 mb 0.00 in0.0 mm 0.00 in0.0 mm 0.10 in2.5 mm
11:15 PM 61.0°F16.1°C 56.1°F13.4°C 84% Calm Calm 4.0 mph6.4 kmh 29.90 in1012.5 mb 0.00 in0.0 mm 0.00 in0.0 mm 0.10 in2.5 mm
11:30 PM 60.8°F16.0°C 55.6°F13.1°C 83% Calm Calm 2.0 mph3.2 kmh 29.90 in1012.5 mb 0.00 in0.0 mm 0.00 in0.0 mm 0.10 in2.5 mm
11:45 PM 60.6°F15.9°C 55.4°F13.0°C 83% Calm Calm 4.0 mph6.4 kmh 29.91 in1012.9 mb 0.00 in0.0 mm 0.00 in0.0 mm 0.10 in2.5 mm